Terminal Aerodrome Forecast
Issued by NWS

Home | Current Version | Previous Version | Text Only | Print | Product List | Glossary On
Versions: 1 2 3 4 5 6 7 8 9 10 11 12 13 14 15 16 17 18 19 20 21
000
FTUS43 KDLH 291027 AAA
TAFHYR
TAF AMD
KHYR 291027Z 2910/3006 04003KT P6SM OVC090
      TEMPO 2910/2912 5SM -RA BR SCT015 BKN040
     FM291400 18004KT P6SM SCT050
     FM300000 18006KT P6SM SKC=

USA.gov is the U.S. government's official web portal to all federal, state and local government web resources and services.